Time;durP1;ratioP1;P1;durP2;ratioP2;P2;SDS_P1;SDS_P2;PMS_P1;PMS_P2;Temp;Humidity;BMP_temperature;BMP_pressure;BME280_temperature;BME280_humidity;BME280_pressure;Samples;Min_cycle;Max_cycle;Signal;HPM_P1;HPM_P2
2022/05/26 00:00:40;;;;;;;;;2.00;2.00;;;;;17.86;65.28;101416.38;4854457;29;45400;-88
2022/05/26 00:03:06;;;;;;;;;1.00;1.00;;;;;18.01;64.26;101442.31;4833923;29;46288;-89
2022/05/26 00:05:33;;;;;;;;;4.00;2.67;;;;;17.99;64.03;101447.69;4852472;29;45323;-87
2022/05/26 00:08:00;;;;;;;;;2.00;2.00;;;;;17.75;64.22;101411.00;4854196;29;44729;-87
2022/05/26 00:10:30;;;;;;;;;3.00;1.00;;;;;17.74;64.47;101428.06;4838961;29;45339;-88
2022/05/26 00:12:56;;;;;;;;;3.67;3.67;;;;;17.73;65.09;101428.94;4855833;29;45533;-88
2022/05/26 00:15:21;;;;;;;;;2.33;1.33;;;;;17.54;64.84;101414.69;4868857;29;45039;-87
2022/05/26 00:17:48;;;;;;;;;2.33;2.33;;;;;17.72;66.07;101457.66;4869165;29;45355;-87
2022/05/26 00:20:14;;;;;;;;;2.67;2.00;;;;;17.66;66.56;101451.41;4868054;29;45661;-87
2022/05/26 00:22:48;;;;;;;;;2.00;2.00;;;;;17.64;66.17;101456.78;4848825;29;46592;-88
2022/05/26 00:25:14;;;;;;;;;1.00;1.00;;;;;17.58;66.64;101454.13;4867167;29;44772;-87
2022/05/26 00:27:39;;;;;;;;;2.00;1.00;;;;;17.33;66.29;101421.03;4866796;29;45309;-88
2022/05/26 00:30:06;;;;;;;;;2.00;1.00;;;;;17.42;66.18;101430.88;4851995;29;45699;-88
2022/05/26 00:32:33;;;;;;;;;2.33;2.00;;;;;17.36;66.47;101424.59;4835198;29;47109;-88
2022/05/26 00:35:00;;;;;;;;;0.00;0.00;;;;;17.30;66.49;101405.81;4871237;29;44763;-87
2022/05/26 00:37:26;;;;;;;;;1.33;1.00;;;;;17.19;65.81;101396.91;4870647;29;45332;-87
2022/05/26 00:39:51;;;;;;;;;1.00;1.00;;;;;17.51;68.00;101468.47;4867905;29;45558;-88
2022/05/26 00:42:17;;;;;;;;;0.00;0.00;;;;;17.48;66.24;101473.88;4867452;29;47051;-88
2022/05/26 00:44:43;;;;;;;;;2.00;2.00;;;;;17.26;65.35;101427.34;4852898;29;45374;-88
2022/05/26 00:47:18;;;;;;;;;1.00;0.33;;;;;17.48;65.88;101466.72;4867696;29;45433;-87
2022/05/26 00:50:12;;;;;;;;;1.00;1.00;;;;;17.44;65.66;101458.66;4864345;29;45316;-87
2022/05/26 00:52:42;;;;;;;;;2.00;0.67;;;;;17.48;65.71;101476.56;4849756;29;45345;-88
2022/05/26 00:55:26;;;;;;;;;1.00;1.00;;;;;17.42;66.26;101468.53;4866041;29;45593;-87
2022/05/26 00:58:09;;;;;;;;;1.67;1.00;;;;;17.42;65.56;101455.06;4852378;29;44985;-88
2022/05/26 01:00:38;;;;;;;;;3.33;0.00;;;;;17.59;65.99;101489.09;4821879;29;45121;-88
2022/05/26 01:03:07;;;;;;;;;0.00;0.00;;;;;17.53;66.47;101485.50;4865492;29;46702;-87
2022/05/26 01:05:59;;;;;;;;;1.33;1.33;;;;;17.24;65.34;101421.97;4865556;29;44926;-88
2022/05/26 01:08:34;;;;;;;;;0.00;0.00;;;;;17.48;67.43;101468.50;4837510;29;45858;-87
2022/05/26 01:10:59;;;;;;;;;1.00;1.00;;;;;17.44;65.49;101473.00;4868446;29;45439;-87
2022/05/26 01:13:26;;;;;;;;;1.00;1.00;;;;;17.49;66.10;101487.34;4852475;29;45546;-87
2022/05/26 01:16:01;;;;;;;;;0.67;0.67;;;;;17.43;66.09;101470.28;4867894;29;44901;-88
2022/05/26 01:19:00;;;;;;;;;0.67;0.67;;;;;17.25;66.30;101441.66;4868328;29;45556;-88
2022/05/26 01:21:52;;;;;;;;;0.33;0.33;;;;;17.49;66.24;101483.72;4869253;29;45440;-87
2022/05/26 01:24:45;;;;;;;;;1.00;1.00;;;;;17.43;65.98;101448.78;4848653;29;45778;-87
2022/05/26 01:27:36;;;;;;;;;2.00;1.00;;;;;17.59;66.53;101493.56;4868739;29;45388;-88
2022/05/26 01:30:21;;;;;;;;;1.00;1.00;;;;;17.60;66.00;101484.59;4852972;29;45347;-89
2022/05/26 01:33:29;;;;;;;;;1.00;1.00;;;;;17.55;66.20;101470.25;4852903;29;45008;-89
2022/05/26 01:36:13;;;;;;;;;1.00;0.00;;;;;17.63;66.26;101484.56;4853116;29;45504;-88
2022/05/26 01:39:14;;;;;;;;;1.00;1.00;;;;;17.64;65.91;101488.19;4869561;29;45922;-88
2022/05/26 01:41:48;;;;;;;;;0.00;0.00;;;;;17.62;66.78;101490.00;4796089;29;45352;-87
2022/05/26 01:44:30;;;;;;;;;0.00;0.00;;;;;17.46;65.97;101470.31;4795686;29;45445;-87
2022/05/26 01:47:01;;;;;;;;;1.00;1.00;;;;;17.44;66.74;101474.78;4795025;29;45846;-87
2022/05/26 01:49:45;;;;;;;;;0.67;0.67;;;;;17.38;68.13;101473.00;4780147;29;45393;-88
2022/05/26 01:52:36;;;;;;;;;1.00;1.00;;;;;17.45;67.15;101480.19;4781361;29;45244;-88
2022/05/26 01:55:18;;;;;;;;;1.00;1.00;;;;;17.50;66.99;101486.41;4797002;29;45483;-88
2022/05/26 01:57:56;;;;;;;;;0.00;0.00;;;;;17.59;66.49;101493.56;4793745;29;45944;-88
2022/05/26 02:00:22;;;;;;;;;2.00;1.00;;;;;17.55;66.94;101499.84;4776591;29;45536;-89
2022/05/26 02:03:02;;;;;;;;;1.00;1.00;;;;;17.63;66.95;101499.84;4777076;29;45270;-88
2022/05/26 02:05:36;;;;;;;;;2.00;2.00;;;;;17.57;66.85;101484.59;4792330;29;44918;-88
2022/05/26 02:08:07;;;;;;;;;0.00;0.00;;;;;17.67;67.40;101498.91;4777548;29;46477;-88
2022/05/26 02:10:45;;;;;;;;;1.00;1.00;;;;;17.70;66.87;101496.25;4777776;29;45450;-88
2022/05/26 02:13:41;;;;;;;;;3.00;1.00;;;;;17.58;67.61;101476.53;4777830;29;45427;-88
2022/05/26 02:16:35;;;;;;;;;1.00;1.00;;;;;17.69;67.42;101486.34;4741810;29;45400;-87
2022/05/26 02:19:12;;;;;;;;;1.67;1.67;;;;;17.64;68.04;101485.50;4768538;29;45349;-87
2022/05/26 02:22:02;;;;;;;;;1.00;1.00;;;;;17.71;67.74;101488.13;4776859;29;45426;-88
2022/05/26 02:24:38;;;;;;;;;2.67;2.33;;;;;17.71;67.49;101489.94;4785144;29;45407;-87
2022/05/26 02:27:05;;;;;;;;;1.00;1.00;;;;;17.63;69.72;101499.84;4777268;29;44942;-88
2022/05/26 02:32:24;;;;;;;;;1.67;1.67;;;;;17.10;69.26;101451.53;4793934;29;45415;-88
2022/05/26 02:34:54;;;;;;;;;1.67;1.67;;;;;17.26;69.48;101489.16;4778211;29;45672;-88
2022/05/26 02:37:23;;;;;;;;;3.33;1.33;;;;;17.33;70.32;101507.06;4778501;29;44939;-87
2022/05/26 02:39:49;;;;;;;;;1.33;1.33;;;;;17.16;74.30;101499.91;4778014;29;46433;-88
2022/05/26 02:42:15;;;;;;;;;3.33;2.33;;;;;17.09;73.36;101497.25;4776108;29;45547;-87
2022/05/26 02:44:43;;;;;;;;;1.00;1.00;;;;;17.00;79.66;101496.34;4778556;29;45398;-88
2022/05/26 02:47:32;;;;;;;;;1.00;1.00;;;;;17.05;77.58;101508.88;4780177;29;45442;-88
2022/05/26 02:50:08;;;;;;;;;3.00;2.33;;;;;16.92;78.79;101490.06;4795979;29;45382;-89
2022/05/26 02:53:18;;;;;;;;;2.00;2.00;;;;;16.98;84.03;101500.81;4818766;29;45434;-88
2022/05/26 02:56:15;;;;;;;;;1.00;1.00;;;;;16.64;82.50;101456.00;4781537;29;45566;-88
2022/05/26 02:58:57;;;;;;;;;3.67;2.00;;;;;16.71;81.28;101466.78;4757665;29;45719;-88
2022/05/26 03:01:32;;;;;;;;;1.67;1.67;;;;;16.92;81.90;101502.63;4759245;29;45717;-88
2022/05/26 03:04:10;;;;;;;;;1.67;1.67;;;;;16.77;80.82;101482.00;4763587;29;45404;-87
2022/05/26 03:06:48;;;;;;;;;2.00;2.00;;;;;16.91;82.65;101501.72;4764435;29;44872;-87
2022/05/26 03:09:15;;;;;;;;;3.00;1.33;;;;;16.85;83.07;101504.41;4777852;29;45767;-89
2022/05/26 03:11:53;;;;;;;;;1.00;1.00;;;;;16.71;81.63;101469.47;4778491;29;46835;-88
2022/05/26 03:14:20;;;;;;;;;2.67;2.00;;;;;16.85;82.55;101496.38;4777640;29;45454;-88
2022/05/26 03:16:46;;;;;;;;;4.33;2.00;;;;;16.89;85.26;101492.78;4779243;29;44820;-88
2022/05/26 03:19:13;;;;;;;;;3.00;1.67;;;;;16.80;83.77;101492.72;4777827;29;45511;-88
2022/05/26 03:21:39;;;;;;;;;5.00;4.00;;;;;16.83;84.94;101499.94;4762799;29;45749;-88
2022/05/26 03:24:09;;;;;;;;;1.00;1.00;;;;;16.93;92.63;101517.88;4777016;29;45470;-88
2022/05/26 03:26:35;;;;;;;;;2.33;2.00;;;;;16.88;91.28;101523.22;4816672;29;45496;-88
2022/05/26 03:29:01;;;;;;;;;1.00;1.00;;;;;16.71;93.45;101495.44;4853429;29;45571;-88
2022/05/26 03:31:27;;;;;;;;;2.00;2.00;;;;;16.67;91.39;101507.06;4838317;29;45298;-88
2022/05/26 03:42:10;;;;;;;;;0.33;0.33;;;;;16.68;92.77;101500.78;4839271;29;45294;-88
2022/05/26 03:44:37;;;;;;;;;2.00;2.00;;;;;16.82;92.62;101525.91;4834371;29;45395;-89
2022/05/26 03:47:04;;;;;;;;;1.00;1.00;;;;;16.86;93.13;101521.44;4835482;29;45487;-88
2022/05/26 03:49:30;;;;;;;;;1.00;1.00;;;;;16.71;92.80;101495.44;4848291;29;44845;-89
2022/05/26 03:51:57;;;;;;;;;1.33;1.33;;;;;16.86;92.78;101511.56;4848319;29;45464;-88
2022/05/26 03:54:25;;;;;;;;;4.00;2.00;;;;;16.90;92.35;101515.16;4849571;29;45357;-88
2022/05/26 03:56:51;;;;;;;;;2.00;2.00;;;;;16.94;91.82;101509.78;4835788;29;45482;-88
2022/05/26 03:59:17;;;;;;;;;3.00;3.00;;;;;16.94;90.82;101517.84;4833496;29;45594;-88
2022/05/26 04:01:50;;;;;;;;;1.33;1.33;;;;;16.95;90.53;101522.34;4852568;29;45602;-88
2022/05/26 04:04:19;;;;;;;;;1.00;1.00;;;;;16.97;90.32;101520.53;4852360;29;45700;-87
2022/05/26 04:06:49;;;;;;;;;2.00;2.00;;;;;16.90;89.59;101507.97;4838696;29;45487;-89
2022/05/26 04:09:17;;;;;;;;;2.00;2.00;;;;;17.11;88.58;101538.47;4854381;29;45300;-88
2022/05/26 04:11:43;;;;;;;;;0.67;0.67;;;;;16.91;88.86;101522.34;4839911;29;47106;-88
2022/05/26 04:14:09;;;;;;;;;1.00;1.00;;;;;17.06;88.11;101542.94;4837751;29;45453;-88
2022/05/26 04:16:36;;;;;;;;;1.00;1.00;;;;;16.79;87.44;101507.06;4836783;29;45389;-87
2022/05/26 04:19:05;;;;;;;;;2.00;1.00;;;;;17.11;87.33;101557.28;4851769;29;45523;-88
2022/05/26 04:21:31;;;;;;;;;5.67;2.33;;;;;16.84;86.86;101524.09;4836049;29;47273;-87
2022/05/26 04:23:58;;;;;;;;;2.00;2.00;;;;;16.89;86.41;101538.44;4851932;29;45380;-87
2022/05/26 04:26:29;;;;;;;;;1.00;1.00;;;;;16.79;86.94;101520.50;4837835;29;45503;-88
2022/05/26 04:29:13;;;;;;;;;0.67;0.67;;;;;16.79;86.05;101516.03;4853712;29;45224;-88
2022/05/26 04:31:42;;;;;;;;;2.00;1.67;;;;;16.98;86.20;101549.19;4849036;29;46295;-87
2022/05/26 04:34:48;;;;;;;;;2.00;2.00;;;;;17.10;85.69;101563.53;4834694;29;45417;-88
2022/05/26 04:37:19;;;;;;;;;1.33;1.00;;;;;17.01;86.07;101575.19;4833215;29;45498;-88
2022/05/26 04:39:46;;;;;;;;;2.00;2.00;;;;;16.94;86.00;101568.91;4848582;29;45710;-88
2022/05/26 04:42:11;;;;;;;;;1.00;1.00;;;;;16.89;85.88;101567.13;4846304;29;45636;-88
2022/05/26 04:44:41;;;;;;;;;1.00;1.00;;;;;16.90;85.52;101567.09;4845971;29;45327;-88
2022/05/26 04:47:07;;;;;;;;;2.67;2.00;;;;;16.98;85.46;101572.47;4847514;29;44932;-88
2022/05/26 04:49:35;;;;;;;;;1.00;1.00;;;;;17.04;84.98;101579.66;4832862;29;45301;-88
2022/05/26 04:52:02;;;;;;;;;0.00;0.00;;;;;17.04;84.39;101568.91;4850329;29;46234;-88
2022/05/26 04:54:28;;;;;;;;;1.00;1.00;;;;;17.04;84.78;101585.03;4848754;29;45433;-88
2022/05/26 04:57:00;;;;;;;;;1.33;1.33;;;;;16.99;84.40;101559.06;4841661;29;44985;-89
2022/05/26 04:59:27;;;;;;;;;1.00;1.00;;;;;17.04;84.57;101585.03;4854483;29;45437;-89
2022/05/26 05:01:54;;;;;;;;;1.00;1.00;;;;;16.94;84.68;101568.00;4867458;29;45365;-88
2022/05/26 05:04:24;;;;;;;;;1.00;1.00;;;;;17.09;84.47;101583.25;4861998;29;45456;-88
2022/05/26 05:06:51;;;;;;;;;1.00;1.00;;;;;17.09;84.54;101584.16;4855346;29;44804;-88
2022/05/26 05:09:17;;;;;;;;;2.00;2.00;;;;;17.16;84.17;101591.31;4873760;29;44884;-88
2022/05/26 05:11:45;;;;;;;;;1.00;1.00;;;;;17.25;85.36;101593.13;4873677;29;46478;-88
2022/05/26 05:14:11;;;;;;;;;0.33;0.33;;;;;16.98;83.44;101553.69;4871842;29;45504;-88
2022/05/26 05:16:42;;;;;;;;;3.00;1.33;;;;;17.22;83.92;101587.72;4874414;29;45290;-87
2022/05/26 05:19:14;;;;;;;;;1.00;1.00;;;;;16.98;83.97;101549.19;4859361;29;45254;-88
2022/05/26 05:21:43;;;;;;;;;1.00;1.00;;;;;17.14;83.12;101582.34;4873597;29;45421;-87
2022/05/26 05:24:24;;;;;;;;;1.00;1.00;;;;;17.17;83.19;101570.72;4859300;29;44792;-88
2022/05/26 05:27:01;;;;;;;;;2.00;2.00;;;;;17.23;83.03;101585.94;4859046;29;45458;-88
2022/05/26 05:29:33;;;;;;;;;1.00;1.00;;;;;17.21;83.19;101569.81;4858182;29;45332;-87
2022/05/26 05:32:08;;;;;;;;;0.67;0.67;;;;;17.33;82.61;101579.66;4858832;29;45536;-87
2022/05/26 05:34:54;;;;;;;;;3.00;1.67;;;;;17.36;82.36;101604.75;4875101;29;45748;-87
2022/05/26 05:37:23;;;;;;;;;2.00;1.67;;;;;17.36;82.54;101599.38;4874235;29;44876;-88
2022/05/26 05:39:53;;;;;;;;;0.33;0.33;;;;;17.36;81.78;101599.38;4873651;29;45447;-88
2022/05/26 05:42:23;;;;;;;;;1.00;1.00;;;;;17.48;81.64;101606.56;4855600;29;45175;-88
2022/05/26 05:44:55;;;;;;;;;2.00;0.67;;;;;17.54;81.76;101611.91;4873065;29;45471;-87
2022/05/26 05:47:25;;;;;;;;;1.00;1.00;;;;;17.43;81.53;101580.56;4874003;29;45800;-88
2022/05/26 05:49:51;;;;;;;;;1.00;1.00;;;;;17.52;80.84;101596.69;4853136;29;45556;-88
2022/05/26 05:52:21;;;;;;;;;2.00;2.00;;;;;17.59;80.94;101623.59;4868215;29;45620;-89
2022/05/26 05:54:48;;;;;;;;;1.00;1.00;;;;;17.25;80.45;101579.69;4868587;29;45193;-89
2022/05/26 05:57:20;;;;;;;;;2.00;1.00;;;;;17.26;80.98;101576.09;4852258;29;45906;-89
2022/05/26 05:59:47;;;;;;;;;1.00;1.00;;;;;17.55;80.51;101618.19;4852257;29;45327;-89
2022/05/26 06:02:13;;;;;;;;;1.00;1.00;;;;;17.48;80.50;101584.16;4867774;29;45391;-89
2022/05/26 06:04:45;;;;;;;;;2.00;1.00;;;;;17.80;79.44;101636.09;4847561;29;45480;-89
2022/05/26 06:07:25;;;;;;;;;0.00;0.00;;;;;17.79;78.20;101638.78;4849193;29;45408;-89
2022/05/26 06:09:55;;;;;;;;;2.00;1.33;;;;;17.84;78.34;101620.00;4850334;29;44940;-88
2022/05/26 06:12:24;;;;;;;;;0.33;0.33;;;;;17.83;76.76;101615.47;4833909;29;45555;-88
2022/05/26 06:14:51;;;;;;;;;0.00;0.00;;;;;17.67;77.07;101599.34;4847284;29;45528;-87
2022/05/26 06:17:46;;;;;;;;;0.00;0.00;;;;;17.83;77.59;101646.00;4851095;29;45514;-88
2022/05/26 06:20:13;;;;;;;;;1.00;0.00;;;;;17.53;77.88;101622.66;4851336;29;45436;-89
2022/05/26 06:22:46;;;;;;;;;0.00;0.00;;;;;17.59;77.34;101633.44;4850522;29;45388;-88
2022/05/26 06:25:13;;;;;;;;;0.00;0.00;;;;;17.69;77.90;101658.53;4850967;29;45410;-88
2022/05/26 06:30:26;;;;;;;;;0.00;0.00;;;;;17.64;77.41;101641.53;4851042;29;45293;-88
2022/05/26 06:38:39;;;;;;;;;4.33;1.00;;;;;17.85;76.42;101663.03;4854343;29;45387;-88
2022/05/26 06:43:57;;;;;;;;;0.00;0.00;;;;;18.09;75.72;101650.44;4850453;29;45539;-88
2022/05/26 06:46:26;;;;;;;;;0.33;0.33;;;;;18.14;75.62;101640.56;4850553;29;45429;-88
2022/05/26 06:48:54;;;;;;;;;1.00;0.00;;;;;18.36;74.85;101644.06;4834132;29;45661;-88
2022/05/26 06:51:26;;;;;;;;;0.33;0.33;;;;;18.51;74.54;101646.69;4848988;29;45400;-88
2022/05/26 06:53:53;;;;;;;;;0.00;0.00;;;;;18.63;73.76;101658.34;4848218;29;46987;-88
2022/05/26 06:56:19;;;;;;;;;1.33;0.67;;;;;18.66;72.75;101679.88;4833607;29;45656;-88
2022/05/26 06:58:46;;;;;;;;;1.00;0.00;;;;;18.59;72.70;101682.59;4833019;29;45478;-88
2022/05/26 07:01:14;;;;;;;;;0.00;0.00;;;;;18.33;72.44;101633.31;4847300;29;45681;-89
2022/05/26 07:03:41;;;;;;;;;0.00;0.00;;;;;18.30;72.54;101653.09;4825242;29;45390;-88
2022/05/26 07:06:19;;;;;;;;;0.00;0.00;;;;;18.24;72.61;101649.50;4829339;29;44804;-88
2022/05/26 07:08:48;;;;;;;;;0.00;0.00;;;;;18.48;72.51;101687.13;4828985;29;45519;-88
2022/05/26 07:11:37;;;;;;;;;0.33;0.00;;;;;18.65;71.68;101687.06;4831884;29;45131;-88
2022/05/26 07:14:18;;;;;;;;;0.00;0.00;;;;;18.33;71.46;101644.97;4832548;29;46932;-87
2022/05/26 07:16:45;;;;;;;;;0.33;0.33;;;;;18.31;70.91;101645.88;4817160;29;45264;-87
2022/05/26 07:19:15;;;;;;;;;0.00;0.00;;;;;18.66;71.10;101696.91;4831694;29;45494;-87
2022/05/26 07:21:46;;;;;;;;;0.00;0.00;;;;;18.72;71.20;101690.63;4860019;29;45474;-88
2022/05/26 07:24:13;;;;;;;;;0.00;0.00;;;;;19.11;70.10;101705.75;4868404;29;45443;-88
2022/05/26 07:26:48;;;;;;;;;0.00;0.00;;;;;18.90;72.65;101673.50;4870305;29;45389;-87
2022/05/26 07:29:16;;;;;;;;;0.00;0.00;;;;;18.52;75.58;101704.16;4865180;29;45241;-87
2022/05/26 07:31:46;;;;;;;;;0.00;0.00;;;;;18.05;78.22;101686.34;4866055;29;45512;-88
2022/05/26 07:34:12;;;;;;;;;0.00;0.00;;;;;18.15;79.38;101710.53;4850563;29;45458;-88
2022/05/26 07:42:17;;;;;;;;;0.00;0.00;;;;;18.20;82.25;101734.78;4857821;29;45487;-88
2022/05/26 07:44:49;;;;;;;;;0.00;0.00;;;;;17.99;82.41;101727.63;4871658;29;46930;-88
2022/05/26 07:47:19;;;;;;;;;0.00;0.00;;;;;17.97;82.02;101689.94;4844685;29;44850;-89
2022/05/26 07:49:47;;;;;;;;;0.00;0.00;;;;;18.31;80.60;101710.53;4861586;29;45701;-86
2022/05/26 07:52:19;;;;;;;;;1.00;0.00;;;;;18.43;79.84;101693.44;4874840;29;44837;-87
2022/05/26 07:54:51;;;;;;;;;0.00;0.00;;;;;18.44;79.38;101690.75;4852514;29;46496;-88
2022/05/26 07:57:31;;;;;;;;;1.00;1.00;;;;;18.70;79.45;101744.50;4855165;29;45148;-88
2022/05/26 08:00:02;;;;;;;;;2.00;2.00;;;;;18.63;78.36;101737.38;4854983;29;45355;-88
2022/05/26 08:02:32;;;;;;;;;2.67;2.67;;;;;18.68;78.39;101748.13;4838943;29;45579;-88
2022/05/26 08:05:09;;;;;;;;;3.33;3.33;;;;;18.62;78.85;101726.59;4853490;29;46457;-88
2022/05/26 08:07:44;;;;;;;;;2.00;2.00;;;;;18.70;77.59;101744.50;4854722;29;44814;-87
2022/05/26 08:10:11;;;;;;;;;2.67;2.00;;;;;18.49;77.27;101726.63;4867037;29;45533;-87
2022/05/26 08:12:38;;;;;;;;;4.00;4.00;;;;;18.18;77.41;101715.94;4854974;29;45399;-87
2022/05/26 08:15:05;;;;;;;;;4.33;4.33;;;;;18.16;77.93;101736.59;4853073;29;45834;-86
2022/05/26 08:17:31;;;;;;;;;3.33;2.67;;;;;18.10;78.16;101736.59;4872606;29;45424;-87
2022/05/26 08:20:05;;;;;;;;;2.67;2.00;;;;;18.27;78.18;101773.38;4856925;29;45499;-87
2022/05/26 08:22:31;;;;;;;;;5.33;5.33;;;;;18.19;77.97;101741.06;4857697;29;45386;-87
2022/05/26 08:25:13;;;;;;;;;3.00;2.00;;;;;18.32;77.59;101728.47;4856716;29;46355;-86
2022/05/26 08:28:30;;;;;;;;;4.33;3.33;;;;;19.00;76.73;101772.28;4858244;29;45355;-87
2022/05/26 08:31:02;;;;;;;;;2.00;2.00;;;;;19.45;75.49;101763.97;4874484;29;44918;-87
2022/05/26 08:33:28;;;;;;;;;5.00;4.00;;;;;19.65;74.21;101744.94;4858857;29;44910;-87
2022/05/26 08:36:03;;;;;;;;;2.33;2.33;;;;;19.77;72.44;101725.97;4873110;29;45493;-88
2022/05/26 08:39:09;;;;;;;;;1.00;1.00;;;;;20.25;70.84;101769.66;4859178;29;44996;-88
2022/05/26 08:41:55;;;;;;;;;2.00;2.00;;;;;20.42;70.03;101764.09;4853024;29;45439;-88
2022/05/26 08:44:40;;;;;;;;;1.67;1.67;;;;;20.66;69.67;101740.44;4873536;29;44863;-87
2022/05/26 08:47:28;;;;;;;;;2.33;2.33;;;;;21.02;67.58;101757.13;4849346;29;45160;-88
2022/05/26 08:50:06;;;;;;;;;3.33;3.33;;;;;20.62;66.48;101714.34;4872585;29;44862;-87
2022/05/26 08:52:40;;;;;;;;;3.00;3.00;;;;;20.58;66.03;101781.03;4873556;29;45337;-88
2022/05/26 08:55:25;;;;;;;;;2.00;2.00;;;;;20.18;67.17;101771.53;4872155;29;45289;-89
2022/05/26 08:58:13;;;;;;;;;2.00;2.00;;;;;19.78;67.61;101769.16;4870639;29;45935;-87
2022/05/26 09:01:10;;;;;;;;;2.00;2.00;;;;;19.77;67.47;101771.88;4854939;29;45517;-87
2022/05/26 09:03:41;;;;;;;;;3.00;3.00;;;;;19.98;67.77;101770.81;4817452;29;44724;-87
2022/05/26 09:06:25;;;;;;;;;3.00;2.00;;;;;20.10;65.74;101751.81;4855255;29;44915;-87
2022/05/26 09:14:20;;;;;;;;;3.75;3.75;;;;;20.71;62.96;101785.44;4834352;29;45438;-87
2022/05/26 09:16:48;;;;;;;;;2.00;2.00;;;;;20.76;61.94;101761.03;4831370;29;45664;-87
2022/05/26 09:23:08;;;;;;;;;3.00;3.00;;;;;20.70;60.96;101747.59;4812251;29;45008;-87
2022/05/26 09:25:56;;;;;;;;;3.00;3.00;;;;;20.86;61.47;101789.75;4824687;29;45592;-88
2022/05/26 09:28:49;;;;;;;;;4.33;4.33;;;;;20.69;59.85;101770.16;4796581;29;44900;-88
2022/05/26 09:31:48;;;;;;;;;5.00;3.00;;;;;20.59;58.61;101796.38;4826160;29;45565;-87
2022/05/26 09:34:26;;;;;;;;;3.00;3.00;;;;;20.63;59.82;101808.06;4811721;29;45396;-88
2022/05/26 09:37:00;;;;;;;;;2.67;2.67;;;;;20.56;60.14;101772.03;4811477;29;45486;-87
2022/05/26 09:39:41;;;;;;;;;2.00;2.00;;;;;20.78;59.24;101786.25;4811555;29;45086;-87
2022/05/26 09:42:17;;;;;;;;;3.33;3.00;;;;;21.13;58.98;101812.88;4795097;29;45632;-87
2022/05/26 09:45:06;;;;;;;;;2.00;2.00;;;;;21.39;58.87;101817.06;4810669;29;45414;-88
2022/05/26 09:47:34;;;;;;;;;2.33;2.00;;;;;;;;4825860;29;45320;-87
2022/05/26 09:50:03;;;;;;;;;2.00;2.00;;;;;21.23;56.60;101789.31;4825699;29;45604;-87
2022/05/26 09:52:44;;;;;;;;;0.00;0.00;;;;;21.45;57.15;101805.25;4825440;29;46529;-87
2022/05/26 09:55:19;;;;;;;;;4.67;3.67;;;;;21.38;56.28;101793.59;4826029;29;45798;-87
2022/05/26 09:57:45;;;;;;;;;3.00;2.00;;;;;21.38;57.50;101826.97;4817955;29;45589;-87
2022/05/26 10:00:17;;;;;;;;;3.00;3.00;;;;;21.46;57.18;101824.19;4863944;29;45685;-88
2022/05/26 10:02:46;;;;;;;;;2.00;2.00;;;;;21.09;57.00;101781.38;4833954;29;46832;-87
2022/05/26 10:09:08;;;;;;;;;3.00;3.00;;;;;21.44;56.32;101830.53;4854220;29;45502;-87
2022/05/26 10:11:52;;;;;;;;;3.00;3.00;;;;;21.52;57.25;101828.63;4856101;29;45320;-88
2022/05/26 10:14:44;;;;;;;;;3.00;3.00;;;;;21.62;56.53;101835.69;4855794;29;45859;-88
2022/05/26 10:17:48;;;;;;;;;3.00;3.00;;;;;21.96;56.53;101818.94;4855498;29;44946;-88
2022/05/26 10:20:35;;;;;;;;;2.00;2.00;;;;;22.30;55.09;101823.81;4857145;29;45360;-88
2022/05/26 10:23:22;;;;;;;;;1.67;1.67;;;;;22.23;55.07;101823.00;4857334;29;45402;-88
2022/05/26 10:26:21;;;;;;;;;1.67;1.67;;;;;21.95;53.78;101798.19;4857747;29;45639;-88
2022/05/26 10:33:07;;;;;;;;;2.33;2.33;;;;;21.75;55.78;101836.41;4800383;29;45431;-88
2022/05/26 10:36:30;;;;;;;;;4.00;2.00;;;;;21.78;54.80;101831.84;4800819;29;45441;-88
2022/05/26 10:39:36;;;;;;;;;2.00;2.00;;;;;21.69;55.45;101837.41;4792584;29;45491;-88
2022/05/26 10:42:36;;;;;;;;;1.00;1.00;;;;;21.78;55.84;101834.56;4796845;29;44805;-88
2022/05/26 10:45:26;;;;;;;;;1.00;1.00;;;;;21.76;54.58;101784.94;4794211;29;45432;-88
2022/05/26 10:48:01;;;;;;;;;1.00;1.00;;;;;22.29;54.64;101838.28;4784296;29;45726;-88
2022/05/26 10:51:10;;;;;;;;;;;;;;;;;;;;;
2022/05/26 10:53:51;;;;;;;;;0.75;0.75;;;;;22.97;51.43;101827.97;4797386;29;72039;-87
2022/05/26 10:56:42;;;;;;;;;1.00;1.00;;;;;22.90;51.25;101834.44;4799009;29;45043;-88
2022/05/26 10:59:32;;;;;;;;;1.00;1.00;;;;;22.71;51.47;101817.63;4796170;29;44990;-87
2022/05/26 11:02:21;;;;;;;;;0.50;0.50;;;;;22.65;52.17;101827.72;4795933;29;45590;-87
2022/05/26 11:04:59;;;;;;;;;2.00;2.00;;;;;22.55;52.44;101825.16;4795983;29;44705;-87
2022/05/26 11:07:38;;;;;;;;;1.00;1.00;;;;;22.34;52.34;101782.22;4794662;29;45332;-88
2022/05/26 11:10:22;;;;;;;;;0.00;0.00;;;;;22.41;51.99;101793.81;4850539;29;45523;-88
2022/05/26 11:13:10;;;;;;;;;1.00;1.00;;;;;22.46;52.09;101833.47;4863961;29;45468;-88
2022/05/26 11:19:00;;;;;;;;;0.00;0.00;;;;;22.08;53.19;101780.81;4852394;29;45482;-87
2022/05/26 11:21:28;;;;;;;;;0.75;0.75;;;;;22.24;53.21;101813.06;4851335;29;45450;-88
2022/05/26 11:24:20;;;;;;;;;0.00;0.00;;;;;22.18;53.00;101823.09;4851562;29;48202;-88
2022/05/26 11:27:17;;;;;;;;;2.00;2.00;;;;;22.06;53.76;101836.84;4849599;29;45544;-88
2022/05/26 11:29:53;;;;;;;;;1.00;1.00;;;;;21.91;54.50;101832.53;4851596;29;45328;-88
2022/05/26 11:38:08;;;;;;;;;0.00;0.00;;;;;22.03;54.25;101779.09;4851750;29;45377;-88
2022/05/26 11:40:52;;;;;;;;;0.00;0.00;;;;;22.61;53.54;101812.44;4834225;29;45323;-87
2022/05/26 11:43:50;;;;;;;;;;;;;;;;;;;;;
2022/05/26 11:46:44;;;;;;;;;1.00;1.00;;;;;22.99;51.77;101798.09;4851271;29;74469;-88
2022/05/26 11:49:30;;;;;;;;;1.00;1.00;;;;;22.77;51.27;101778.66;4864923;29;45551;-88
2022/05/26 11:51:57;;;;;;;;;0.00;0.00;;;;;22.59;51.55;101779.91;4851015;29;45910;-88
2022/05/26 11:55:21;;;;;;;;;0.00;0.00;;;;;22.77;51.06;101797.66;4850995;29;45372;-88
2022/05/26 11:57:54;;;;;;;;;0.00;0.00;;;;;22.68;50.27;101798.72;4849025;29;45356;-89
2022/05/26 12:03:49;;;;;;;;;1.00;1.00;;;;;23.09;49.94;101763.56;4851425;29;45452;-88
2022/05/26 12:06:40;;;;;;;;;1.00;1.00;;;;;23.46;48.89;101757.31;4850480;29;45384;-88
2022/05/26 12:09:43;;;;;;;;;1.00;1.00;;;;;23.70;49.18;101797.44;4839495;29;45423;-88
2022/05/26 12:12:23;;;;;;;;;0.25;0.25;;;;;23.81;49.49;101809.91;4849743;29;45695;-88
2022/05/26 12:15:03;;;;;;;;;0.00;0.00;;;;;23.64;49.88;101792.16;4848816;29;44764;-88
2022/05/26 12:17:37;;;;;;;;;0.75;0.75;;;;;23.46;50.89;101792.59;4870383;29;45492;-87
2022/05/26 12:20:11;;;;;;;;;2.00;1.00;;;;;23.50;50.45;101808.78;4855636;29;45851;-87
2022/05/26 12:22:49;;;;;;;;;0.00;0.00;;;;;23.67;50.34;101805.69;4854451;29;45365;-88
2022/05/26 12:25:36;;;;;;;;;0.00;0.00;;;;;23.68;50.91;101787.56;4853717;29;44818;-88
2022/05/26 12:28:28;;;;;;;;;0.67;0.67;;;;;24.00;49.96;101803.13;4852624;29;45654;-88
2022/05/26 12:34:28;;;;;;;;;1.00;1.00;;;;;24.01;49.68;101769.56;4853413;29;45700;-88
2022/05/26 12:37:43;;;;;;;;;1.00;1.00;;;;;24.33;49.36;101771.44;4853889;29;45475;-88
2022/05/26 12:40:44;;;;;;;;;1.00;1.00;;;;;24.41;48.67;101787.53;4867505;29;45364;-89
2022/05/26 12:43:28;;;;;;;;;1.00;1.00;;;;;24.35;48.64;101775.00;4848937;29;46590;-88
2022/05/26 12:49:28;;;;;;;;;1.25;1.25;;;;;24.11;48.02;101787.41;4834463;29;44839;-88
2022/05/26 12:52:40;;;;;;;;;1.00;1.00;;;;;24.07;48.57;101793.84;4835425;29;45371;-89
2022/05/26 12:55:34;;;;;;;;;1.00;1.00;;;;;23.88;48.11;101787.13;4835078;29;46850;-88
2022/05/26 12:58:26;;;;;;;;;1.00;1.00;;;;;23.52;48.44;101740.88;4835270;29;45396;-88
2022/05/26 13:01:03;;;;;;;;;1.75;1.75;;;;;23.45;48.99;101725.63;4835892;29;44923;-88
2022/05/26 13:03:52;;;;;;;;;1.25;1.25;;;;;23.82;48.89;101773.69;4835297;29;45552;-88
2022/05/26 13:07:37;;;;;;;;;;;;;;;;;;;;;
2022/05/26 13:10:47;;;;;;;;;0.75;0.75;;;;;24.43;47.88;101758.47;4709629;30;72796;-88
2022/05/26 13:13:31;;;;;;;;;0.75;0.75;;;;;24.47;46.50;101767.44;4786439;29;45458;-88
2022/05/26 13:26:37;;;;;;;;;0.25;0.25;;;;;24.85;46.28;101719.25;5032205;23;47244;-88
2022/05/26 13:29:11;;;;;;;;;1.00;1.00;;;;;25.21;45.71;101724.47;4872405;29;44944;-88